createdAt,value
2019-03-30T00:02:14.802Z,52.20
2019-03-30T00:04:45.780Z,52.73
2019-03-30T00:07:16.882Z,51.40
2019-03-30T00:09:47.769Z,51.57
2019-03-30T00:12:18.627Z,45.83
2019-03-30T00:14:49.488Z,55.17
2019-03-30T00:17:20.371Z,48.55
2019-03-30T00:19:52.439Z,51.33
2019-03-30T00:22:23.305Z,51.88
2019-03-30T00:24:54.347Z,54.77
2019-03-30T00:27:25.296Z,54.73
2019-03-30T00:29:56.180Z,51.60
2019-03-30T00:32:27.183Z,53.07
2019-03-30T00:34:58.216Z,48.83
2019-03-30T00:37:29.234Z,48.60
2019-03-30T00:40:00.114Z,45.10
2019-03-30T00:42:31.037Z,48.67
2019-03-30T00:45:01.934Z,46.73
2019-03-30T00:47:32.805Z,45.87
2019-03-30T00:50:03.908Z,46.03
2019-03-30T00:52:34.875Z,50.83
2019-03-30T00:55:06.106Z,47.93
2019-03-30T00:57:37.078Z,45.10
2019-03-30T01:00:08.634Z,53.97
2019-03-30T01:02:39.695Z,50.03
2019-03-30T01:05:10.787Z,48.50
2019-03-30T01:07:41.812Z,51.43
2019-03-30T01:10:13.539Z,51.23
2019-03-30T01:12:44.437Z,56.63
2019-03-30T01:15:15.444Z,54.05
2019-03-30T01:17:46.478Z,55.45
2019-03-30T01:20:17.797Z,53.65
2019-03-30T01:22:48.760Z,50.67
2019-03-30T01:25:19.719Z,47.88
2019-03-30T01:27:50.743Z,50.57
2019-03-30T01:30:23.421Z,49.37
2019-03-30T01:32:54.455Z,44.33
2019-03-30T01:35:25.591Z,44.50
2019-03-30T01:37:56.685Z,45.17
2019-03-30T01:40:27.637Z,43.77
2019-03-30T01:42:58.541Z,45.27
2019-03-30T01:45:29.562Z,41.77
2019-03-30T01:48:00.512Z,39.85
2019-03-30T01:50:31.438Z,43.38
2019-03-30T01:53:02.471Z,42.20
2019-03-30T01:55:33.510Z,46.37
2019-03-30T01:58:04.357Z,42.83
2019-03-30T02:00:41.563Z,44.17
2019-03-30T02:03:19.424Z,43.40
2019-03-30T02:05:50.342Z,44.80
2019-03-30T02:08:21.188Z,43.25
2019-03-30T02:10:52.193Z,44.10
2019-03-30T02:13:23.212Z,44.70
2019-03-30T02:15:54.095Z,44.73
2019-03-30T02:18:25.201Z,44.23
2019-03-30T02:20:56.270Z,47.00
2019-03-30T02:23:27.271Z,71.07
2019-03-30T02:25:58.390Z,60.20
2019-03-30T02:28:29.596Z,70.05
2019-03-30T02:31:00.627Z,71.87
2019-03-30T02:33:31.702Z,70.27
2019-03-30T02:36:02.643Z,78.33
2019-03-30T02:38:33.780Z,75.93
2019-03-30T02:41:04.876Z,69.77
2019-03-30T02:43:35.945Z,64.67
2019-03-30T02:46:07.815Z,70.50
2019-03-30T02:48:38.743Z,72.97
2019-03-30T02:51:09.680Z,65.87
2019-03-30T02:53:40.780Z,73.17
2019-03-30T02:56:11.719Z,68.90
2019-03-30T02:58:42.976Z,67.37
2019-03-30T03:01:14.064Z,68.33
2019-03-30T03:03:45.220Z,70.43
2019-03-30T03:06:16.610Z,63.03
2019-03-30T03:08:47.657Z,64.43
2019-03-30T03:11:19.013Z,63.92
2019-03-30T03:13:50.127Z,71.53
2019-03-30T03:16:21.318Z,70.15
2019-03-30T03:18:52.621Z,73.40
2019-03-30T03:21:23.699Z,68.50
2019-03-30T03:23:54.782Z,72.27
2019-03-30T03:26:25.853Z,66.27
2019-03-30T03:28:56.943Z,57.77
2019-03-30T03:31:28.089Z,55.20
2019-03-30T03:33:59.139Z,54.43
2019-03-30T03:36:30.365Z,49.90
2019-03-30T03:39:01.472Z,53.13
2019-03-30T03:41:32.956Z,50.87
2019-03-30T03:44:04.099Z,50.17
2019-03-30T03:46:35.265Z,48.83
2019-03-30T03:49:07.554Z,52.60
2019-03-30T03:51:39.144Z,51.53
2019-03-30T03:54:13.683Z,48.17
2019-03-30T03:56:49.099Z,50.55
2019-03-30T03:59:21.659Z,50.60
2019-03-30T04:01:56.270Z,48.27
2019-03-30T04:04:28.988Z,45.10
2019-03-30T04:07:02.982Z,43.97
2019-03-30T04:09:36.332Z,42.17
2019-03-30T04:12:09.865Z,44.30
2019-03-30T04:14:45.342Z,37.60
2019-03-30T04:17:16.590Z,42.50
2019-03-30T04:19:47.878Z,44.30
2019-03-30T04:22:19.012Z,43.83
2019-03-30T04:24:50.155Z,41.70
2019-03-30T04:27:21.125Z,45.95
2019-03-30T04:29:52.193Z,41.20
2019-03-30T04:32:23.350Z,40.10
2019-03-30T04:34:54.664Z,37.37
2019-03-30T04:37:25.680Z,40.40
2019-03-30T04:39:56.795Z,38.03
2019-03-30T04:42:27.952Z,41.43
2019-03-30T04:44:59.187Z,42.53
2019-03-30T04:47:30.563Z,39.90
2019-03-30T04:50:01.730Z,50.60
2019-03-30T04:52:32.969Z,49.67
2019-03-30T04:55:04.309Z,49.87
2019-03-30T04:57:35.559Z,54.23
2019-03-30T05:00:08.126Z,50.08
2019-03-30T05:02:39.295Z,49.77
2019-03-30T05:05:10.793Z,53.93
2019-03-30T05:07:41.803Z,53.40
2019-03-30T05:10:13.125Z,48.63
2019-03-30T05:12:44.071Z,51.80
2019-03-30T05:15:15.167Z,54.60
2019-03-30T05:17:47.874Z,61.07
2019-03-30T05:20:18.993Z,58.57
2019-03-30T05:22:51.414Z,60.80
2019-03-30T05:25:22.579Z,60.27
2019-03-30T05:27:53.553Z,60.15
2019-03-30T05:30:24.619Z,60.53
2019-03-30T05:33:05.597Z,54.03
2019-03-30T05:35:28.375Z,60.63
2019-03-30T05:38:01.477Z,64.60
2019-03-30T05:40:32.511Z,65.00
2019-03-30T05:43:03.758Z,61.13
2019-03-30T05:45:35.180Z,63.98
2019-03-30T05:48:07.872Z,58.67
2019-03-30T05:50:39.396Z,62.47
2019-03-30T05:53:10.879Z,57.25
2019-03-30T05:55:42.220Z,58.00
2019-03-30T05:58:13.456Z,55.33
2019-03-30T06:00:44.973Z,57.67
2019-03-30T06:03:16.384Z,60.07
2019-03-30T06:05:47.759Z,60.20
2019-03-30T06:08:19.019Z,54.93
2019-03-30T06:10:50.321Z,67.20
2019-03-30T06:13:21.547Z,69.43
2019-03-30T06:15:52.823Z,65.80
2019-03-30T06:18:24.151Z,67.50
2019-03-30T06:20:55.495Z,68.00
2019-03-30T06:23:26.954Z,60.83
2019-03-30T06:25:58.404Z,64.43
2019-03-30T06:28:29.725Z,66.93
2019-03-30T06:31:01.098Z,65.93
2019-03-30T06:33:32.606Z,67.60
2019-03-30T06:36:03.909Z,65.03
2019-03-30T06:38:35.272Z,66.33
2019-03-30T06:41:07.896Z,59.13
2019-03-30T06:43:39.172Z,59.67
2019-03-30T06:46:10.494Z,65.23
2019-03-30T06:48:41.877Z,60.97
2019-03-30T06:51:13.141Z,58.17
2019-03-30T06:53:44.512Z,55.40
2019-03-30T06:56:15.685Z,55.03
2019-03-30T06:58:47.059Z,58.27
2019-03-30T07:04:04.887Z,54.03
2019-03-30T07:06:36.336Z,52.97
2019-03-30T07:09:09.033Z,51.65
2019-03-30T07:11:46.281Z,50.27
2019-03-30T07:14:17.636Z,49.23
2019-03-30T07:16:51.020Z,48.63
2019-03-30T07:19:24.252Z,47.73
2019-03-30T07:21:55.285Z,48.57
2019-03-30T07:24:26.404Z,47.80
2019-03-30T07:26:57.449Z,45.07
2019-03-30T07:29:28.414Z,44.07
2019-03-30T07:31:59.457Z,45.23
2019-03-30T07:34:30.435Z,43.87
2019-03-30T07:37:01.505Z,42.87
2019-03-30T07:39:32.456Z,42.07
2019-03-30T07:42:03.587Z,41.93
2019-03-30T07:44:35.058Z,42.07
2019-03-30T07:47:06.187Z,39.33
2019-03-30T07:49:37.310Z,39.87
2019-03-30T07:52:08.250Z,35.53
2019-03-30T07:54:41.622Z,36.63
2019-03-30T07:57:17.097Z,36.70
2019-03-30T07:59:45.555Z,35.67
2019-03-30T08:02:16.478Z,33.47
2019-03-30T08:04:47.555Z,33.97
2019-03-30T08:07:18.616Z,31.70
2019-03-30T08:09:49.632Z,31.13
2019-03-30T08:12:20.602Z,30.23
2019-03-30T08:14:51.693Z,27.30
2019-03-30T08:17:23.039Z,27.30
2019-03-30T08:19:54.060Z,27.07
2019-03-30T08:22:25.086Z,26.07
2019-03-30T08:24:56.281Z,25.97
2019-03-30T08:27:27.278Z,24.53
2019-03-30T08:29:58.244Z,24.70
2019-03-30T08:32:29.192Z,23.40
2019-03-30T08:35:00.282Z,23.80
2019-03-30T08:37:31.422Z,24.17
2019-03-30T08:40:02.547Z,23.50
2019-03-30T08:42:33.598Z,23.90
2019-03-30T08:45:05.247Z,22.70
2019-03-30T08:47:36.336Z,22.03
2019-03-30T08:50:08.457Z,22.15
2019-03-30T08:52:39.990Z,22.23
2019-03-30T08:55:11.615Z,22.03
2019-03-30T08:57:42.681Z,23.00
2019-03-30T09:00:15.597Z,22.53
2019-03-30T09:02:48.573Z,22.37
2019-03-30T09:05:19.620Z,22.03
2019-03-30T09:07:50.603Z,18.20
2019-03-30T09:10:21.582Z,19.60
2019-03-30T09:12:52.564Z,19.23
2019-03-30T09:15:23.561Z,21.87
2019-03-30T09:17:54.589Z,19.17
2019-03-30T09:20:25.567Z,18.82
2019-03-30T09:22:56.539Z,19.63
2019-03-30T09:25:27.511Z,19.03
2019-03-30T09:27:58.523Z,19.32
2019-03-30T09:30:29.615Z,18.80
2019-03-30T09:33:00.516Z,19.00
2019-03-30T09:35:31.447Z,19.20
2019-03-30T09:38:02.415Z,18.43
2019-03-30T09:40:33.545Z,19.27
2019-03-30T09:43:04.500Z,19.63
2019-03-30T09:45:35.736Z,18.43
2019-03-30T09:48:10.344Z,18.60
2019-03-30T09:50:41.319Z,19.20
2019-03-30T09:53:12.395Z,18.57
2019-03-30T09:55:43.417Z,17.77
2019-03-30T09:58:14.406Z,18.47
2019-03-30T10:00:45.521Z,18.07
2019-03-30T10:03:16.546Z,15.33
2019-03-30T10:05:47.650Z,16.20
2019-03-30T10:08:18.627Z,16.60
2019-03-30T10:10:52.754Z,14.70
2019-03-30T10:13:23.904Z,14.60
2019-03-30T10:15:54.862Z,14.40
2019-03-30T10:18:25.859Z,15.43
2019-03-30T10:20:57.872Z,15.90
2019-03-30T10:23:28.848Z,16.00
2019-03-30T10:25:59.890Z,15.30
2019-03-30T10:28:30.872Z,15.43
2019-03-30T10:33:41.657Z,15.53
2019-03-30T10:36:13.589Z,15.60
2019-03-30T10:38:44.547Z,15.23
2019-03-30T10:41:15.596Z,13.77
2019-03-30T10:43:46.657Z,13.30
2019-03-30T10:46:17.613Z,13.40
2019-03-30T10:48:48.490Z,14.00
2019-03-30T10:51:19.608Z,13.60
2019-03-30T10:53:50.479Z,13.27
2019-03-30T10:56:21.483Z,14.45
2019-03-30T10:58:52.440Z,13.90
2019-03-30T11:01:23.419Z,14.18
2019-03-30T11:03:54.546Z,14.10
2019-03-30T11:06:25.537Z,13.50
2019-03-30T11:08:56.513Z,13.05
2019-03-30T11:11:27.563Z,14.47
2019-03-30T11:13:58.453Z,12.83
2019-03-30T11:16:29.381Z,13.47
2019-03-30T11:19:00.576Z,12.00
2019-03-30T11:21:32.123Z,13.27
2019-03-30T11:24:06.426Z,12.20
2019-03-30T11:26:35.727Z,12.20
2019-03-30T11:29:09.700Z,12.80
2019-03-30T11:31:40.460Z,12.20
2019-03-30T11:34:14.250Z,11.30
2019-03-30T11:36:45.283Z,12.40
2019-03-30T11:39:21.317Z,12.95
2019-03-30T11:41:52.277Z,13.13
2019-03-30T11:44:23.206Z,12.17
2019-03-30T11:46:54.214Z,13.80
2019-03-30T11:49:25.261Z,12.07
2019-03-30T11:51:57.890Z,12.83
2019-03-30T11:54:28.856Z,12.27
2019-03-30T11:56:59.915Z,11.73
2019-03-30T11:59:30.894Z,12.07
2019-03-30T12:02:01.879Z,11.17
2019-03-30T12:04:34.385Z,11.00
2019-03-30T12:07:07.761Z,12.23
2019-03-30T12:09:38.820Z,11.13
2019-03-30T12:12:09.937Z,11.43
2019-03-30T12:14:40.977Z,11.30
2019-03-30T12:17:12.034Z,10.32
2019-03-30T12:19:43.006Z,10.00
2019-03-30T12:22:13.886Z,10.80
2019-03-30T12:24:44.998Z,10.87
2019-03-30T12:27:15.980Z,9.27
2019-03-30T12:29:47.049Z,10.03
2019-03-30T12:32:18.026Z,10.23
2019-03-30T12:34:50.754Z,9.83
2019-03-30T12:37:21.831Z,10.35
2019-03-30T12:39:52.972Z,9.73
2019-03-30T12:42:31.367Z,9.23
2019-03-30T12:45:02.448Z,9.47
2019-03-30T12:47:33.483Z,8.40
2019-03-30T12:50:04.845Z,9.40
2019-03-30T12:52:35.934Z,9.27
2019-03-30T12:55:07.068Z,9.73
2019-03-30T12:57:38.154Z,9.93
2019-03-30T13:00:09.999Z,9.13
2019-03-30T13:02:41.038Z,9.80
2019-03-30T13:05:12.126Z,9.17
2019-03-30T13:07:43.167Z,10.20
2019-03-30T13:10:14.333Z,9.77
2019-03-30T13:12:45.471Z,10.43
2019-03-30T13:15:16.787Z,9.03
2019-03-30T13:17:47.873Z,8.47
2019-03-30T13:20:19.211Z,9.77
2019-03-30T13:22:51.322Z,13.10
2019-03-30T13:25:24.164Z,14.38
2019-03-30T13:27:55.150Z,14.70
2019-03-30T13:30:26.405Z,14.00
2019-03-30T13:32:58.072Z,15.53
2019-03-30T13:35:29.053Z,15.13
2019-03-30T13:38:00.252Z,15.53
2019-03-30T13:40:31.499Z,15.60
2019-03-30T13:43:04.424Z,15.30
2019-03-30T13:45:37.972Z,15.23
2019-03-30T13:48:09.023Z,16.60
2019-03-30T13:50:42.191Z,16.07
2019-03-30T13:53:13.406Z,18.48
2019-03-30T13:55:48.616Z,20.70
2019-03-30T13:58:19.660Z,19.15
2019-03-30T14:00:50.872Z,21.47
2019-03-30T14:03:21.776Z,33.00
2019-03-30T14:05:55.507Z,42.33
2019-03-30T14:08:26.457Z,51.37
2019-03-30T14:10:57.564Z,52.27
2019-03-30T14:13:28.509Z,51.30
2019-03-30T14:15:59.609Z,54.33
2019-03-30T14:18:30.872Z,50.80
2019-03-30T14:21:02.011Z,53.37
2019-03-30T14:23:33.248Z,55.73
2019-03-30T14:26:04.352Z,55.73
2019-03-30T14:28:35.536Z,56.20
2019-03-30T14:31:06.707Z,54.23
2019-03-30T14:33:37.817Z,54.03
2019-03-30T14:36:08.844Z,52.13
2019-03-30T14:38:45.162Z,55.77
2019-03-30T14:41:41.239Z,55.30
2019-03-30T14:44:13.972Z,54.67
2019-03-30T14:46:47.456Z,54.83
2019-03-30T14:49:22.518Z,52.07
2019-03-30T14:51:56.769Z,53.67
2019-03-30T14:54:27.852Z,55.73
2019-03-30T14:56:58.885Z,57.10
2019-03-30T14:59:31.712Z,60.35
2019-03-30T15:02:02.857Z,57.37
2019-03-30T15:04:37.077Z,55.77
2019-03-30T15:07:10.535Z,56.33
2019-03-30T15:09:41.841Z,53.73
2019-03-30T15:12:17.973Z,46.90
2019-03-30T15:14:45.907Z,45.40
2019-03-30T15:17:18.510Z,45.70
2019-03-30T15:19:52.687Z,39.97
2019-03-30T15:22:25.976Z,37.42
2019-03-30T15:25:00.835Z,36.13
2019-03-30T15:27:33.499Z,35.78
2019-03-30T15:30:04.751Z,37.57
2019-03-30T15:32:39.956Z,38.50
2019-03-30T15:35:11.244Z,40.57
2019-03-30T15:37:45.451Z,37.87
2019-03-30T15:40:21.419Z,36.95
2019-03-30T15:42:55.629Z,38.13
2019-03-30T15:45:28.162Z,35.10
2019-03-30T15:47:59.319Z,37.47
2019-03-30T15:51:00.706Z,36.27
2019-03-30T15:53:03.631Z,32.90
2019-03-30T15:55:37.070Z,32.47
2019-03-30T15:58:15.859Z,31.20
2019-03-30T16:00:46.855Z,32.30
2019-03-30T16:03:19.029Z,31.90
2019-03-30T16:05:52.923Z,31.30
2019-03-30T16:08:24.303Z,31.37
2019-03-30T16:10:58.256Z,32.73
2019-03-30T16:13:33.720Z,31.27
2019-03-30T16:16:07.706Z,30.40
2019-03-30T16:18:38.856Z,32.63
2019-03-30T16:21:13.089Z,31.83
2019-03-30T16:23:45.416Z,31.77
2019-03-30T16:26:16.643Z,31.15
2019-03-30T16:28:58.814Z,31.03
2019-03-30T16:31:30.135Z,29.93
2019-03-30T16:34:01.452Z,31.77
2019-03-30T16:36:32.615Z,30.57
2019-03-30T16:39:07.684Z,30.83
2019-03-30T16:41:47.568Z,31.17
2019-03-30T16:44:19.192Z,31.73
2019-03-30T16:46:52.810Z,31.43
2019-03-30T16:49:36.010Z,31.37
2019-03-30T16:52:19.535Z,33.73
2019-03-30T16:55:14.519Z,32.50
2019-03-30T16:58:03.639Z,32.20
2019-03-30T17:00:55.397Z,34.60
2019-03-30T17:03:15.596Z,35.58
2019-03-30T17:05:47.052Z,34.27
2019-03-30T17:08:18.492Z,38.20
2019-03-30T17:10:58.334Z,35.70
2019-03-30T17:13:29.353Z,36.07
2019-03-30T17:16:00.520Z,39.57
2019-03-30T17:18:42.303Z,41.75
2019-03-30T17:21:15.051Z,39.53
2019-03-30T17:23:46.017Z,37.87
2019-03-30T17:26:17.024Z,38.83
2019-03-30T17:28:48.098Z,37.77
2019-03-30T17:31:20.750Z,39.00
2019-03-30T17:33:51.733Z,40.57
2019-03-30T17:36:22.710Z,44.70
2019-03-30T17:38:53.713Z,40.60
2019-03-30T17:41:24.773Z,43.23
2019-03-30T17:43:57.821Z,44.73
2019-03-30T17:46:29.201Z,43.00
2019-03-30T17:49:00.301Z,41.00
2019-03-30T17:51:31.693Z,43.93
2019-03-30T17:54:02.935Z,44.07
2019-03-30T17:56:34.167Z,42.73
2019-03-30T17:59:05.258Z,43.73
2019-03-30T18:01:36.394Z,44.57
2019-03-30T18:04:09.609Z,45.57
2019-03-30T18:06:40.289Z,50.95
2019-03-30T18:09:11.483Z,45.50
2019-03-30T18:11:42.489Z,44.03
2019-03-30T18:14:17.810Z,44.70
2019-03-30T18:16:49.076Z,44.37
2019-03-30T18:19:20.294Z,45.48
2019-03-30T18:21:51.311Z,45.70
2019-03-30T18:24:22.355Z,43.87
2019-03-30T18:26:53.557Z,45.98
2019-03-30T18:29:24.470Z,48.60
2019-03-30T18:31:55.511Z,46.93
2019-03-30T18:34:27.421Z,49.07
2019-03-30T18:36:59.989Z,49.33
2019-03-30T18:39:37.107Z,51.20
2019-03-30T18:42:15.230Z,50.30
2019-03-30T18:44:47.125Z,51.10
2019-03-30T18:47:22.678Z,52.00
2019-03-30T18:49:55.360Z,52.70
2019-03-30T18:52:26.787Z,53.83
2019-03-30T18:54:58.609Z,52.57
2019-03-30T18:57:31.822Z,54.80
2019-03-30T19:00:03.266Z,54.90
2019-03-30T19:02:37.090Z,56.37
2019-03-30T19:05:08.928Z,59.23
2019-03-30T19:07:43.192Z,57.27
2019-03-30T19:10:14.520Z,53.37
2019-03-30T19:12:48.625Z,54.47
2019-03-30T19:15:20.058Z,53.07
2019-03-30T19:17:52.764Z,53.93
2019-03-30T19:20:24.457Z,53.87
2019-03-30T19:22:56.272Z,53.20
2019-03-30T19:25:29.723Z,51.33
2019-03-30T19:28:00.620Z,51.40
2019-03-30T19:30:32.049Z,47.43
2019-03-30T19:33:03.596Z,49.20
2019-03-30T19:35:35.168Z,53.53
2019-03-30T19:38:10.803Z,51.10
2019-03-30T19:40:41.048Z,48.77
2019-03-30T19:43:12.390Z,48.40
2019-03-30T19:45:43.905Z,48.13
2019-03-30T19:48:15.456Z,47.73
2019-03-30T19:50:46.897Z,47.13
2019-03-30T19:53:18.422Z,48.47
2019-03-30T19:55:49.811Z,46.10
2019-03-30T19:58:21.096Z,46.13
2019-03-30T20:00:52.869Z,47.40
2019-03-30T20:03:27.334Z,46.40
2019-03-30T20:05:59.245Z,44.23
2019-03-30T20:08:30.962Z,45.93
2019-03-30T20:11:02.422Z,47.40
2019-03-30T20:13:33.916Z,45.40
2019-03-30T20:16:05.416Z,46.83
2019-03-30T20:18:40.653Z,44.50
2019-03-30T20:21:12.281Z,45.88
2019-03-30T20:23:45.466Z,48.53
2019-03-30T20:26:16.940Z,43.28
2019-03-30T20:28:48.270Z,46.83
2019-03-30T20:31:19.569Z,45.27
2019-03-30T20:33:50.912Z,46.53
2019-03-30T20:36:25.573Z,46.13
2019-03-30T20:38:59.224Z,49.80
2019-03-30T20:41:30.686Z,46.70
2019-03-30T20:44:04.382Z,45.13
2019-03-30T20:46:35.952Z,45.28
2019-03-30T20:49:08.083Z,48.02
2019-03-30T20:51:39.465Z,44.33
2019-03-30T20:54:11.048Z,45.43
2019-03-30T20:56:42.422Z,46.07
2019-03-30T20:59:16.741Z,44.27
2019-03-30T21:01:48.271Z,45.50
2019-03-30T21:04:20.464Z,43.87
2019-03-30T21:06:52.056Z,55.25
2019-03-30T21:09:23.347Z,46.00
2019-03-30T21:11:54.697Z,43.63
2019-03-30T21:14:28.617Z,40.67
2019-03-30T21:17:03.927Z,41.50
2019-03-30T21:19:35.407Z,43.30
2019-03-30T21:24:36.529Z,43.83
2019-03-30T21:27:07.913Z,43.40
2019-03-30T21:29:48.470Z,42.83
2019-03-30T21:32:12.237Z,41.13
2019-03-30T21:34:45.992Z,43.50
2019-03-30T21:37:20.494Z,42.23
2019-03-30T21:39:54.698Z,42.10
2019-03-30T21:42:25.988Z,44.13
2019-03-30T21:45:01.356Z,39.73
2019-03-30T21:47:32.923Z,44.23
2019-03-30T21:50:07.611Z,45.50
2019-03-30T21:52:39.132Z,44.77
2019-03-30T21:55:13.068Z,41.67
2019-03-30T21:57:48.797Z,45.67
2019-03-30T22:00:37.249Z,45.37
2019-03-30T22:03:09.953Z,44.57
2019-03-30T22:05:41.958Z,42.60
2019-03-30T22:08:17.381Z,41.47
2019-03-30T22:10:48.793Z,40.87
2019-03-30T22:13:21.637Z,44.48
2019-03-30T22:15:53.144Z,43.87
2019-03-30T22:18:25.469Z,41.55
2019-03-30T22:20:57.053Z,43.30
2019-03-30T22:23:28.480Z,42.67
2019-03-30T22:26:00.011Z,41.30
2019-03-30T22:28:31.264Z,43.13
2019-03-30T22:31:03.056Z,44.15
2019-03-30T22:33:41.409Z,42.63
2019-03-30T22:36:13.158Z,43.65
2019-03-30T22:41:19.759Z,43.47
2019-03-30T22:43:53.487Z,41.77
2019-03-30T22:46:27.793Z,43.37
2019-03-30T22:48:58.788Z,42.13
2019-03-30T22:51:29.721Z,41.67
2019-03-30T22:54:02.325Z,43.10
2019-03-30T22:56:33.286Z,44.73
2019-03-30T22:59:04.483Z,44.17
2019-03-30T23:01:35.831Z,43.50
2019-03-30T23:04:07.478Z,41.02
2019-03-30T23:06:38.573Z,42.30
2019-03-30T23:09:11.398Z,41.40
2019-03-30T23:11:42.777Z,40.27
2019-03-30T23:14:14.121Z,37.77
2019-03-30T23:16:45.225Z,41.40
2019-03-30T23:19:16.427Z,41.20
2019-03-30T23:21:47.536Z,40.80
2019-03-30T23:24:22.666Z,40.93
2019-03-30T23:26:56.617Z,39.87
2019-03-30T23:29:30.474Z,35.63
2019-03-30T23:32:01.524Z,37.50
2019-03-30T23:34:35.383Z,36.37
2019-03-30T23:37:07.615Z,37.07
2019-03-30T23:39:38.592Z,37.17
2019-03-30T23:42:09.733Z,36.93
2019-03-30T23:44:42.346Z,36.20
2019-03-30T23:47:13.495Z,35.13
2019-03-30T23:49:44.563Z,35.40
2019-03-30T23:52:15.587Z,38.23
2019-03-30T23:54:46.800Z,37.77
2019-03-30T23:57:17.761Z,37.50
2019-03-30T23:59:50.893Z,34.87
